createdAt,value
2023-01-27T00:04:09.596Z,93.68
2023-01-27T00:10:32.603Z,93.44
2023-01-27T00:16:52.706Z,93.38
2023-01-27T00:23:15.597Z,93.2
2023-01-27T00:29:35.654Z,93.15
2023-01-27T00:35:58.743Z,93.2
2023-01-27T00:42:18.607Z,93.23
2023-01-27T00:48:41.581Z,93.27
2023-01-27T00:55:01.653Z,93.12
2023-01-27T01:01:24.755Z,93.13
2023-01-27T01:07:44.700Z,93.12
2023-01-27T01:14:07.727Z,93.16
2023-01-27T01:20:27.599Z,93.11
2023-01-27T01:26:50.601Z,93.02
2023-01-27T01:33:10.657Z,92.8
2023-01-27T01:39:33.585Z,92.39
2023-01-27T01:45:53.577Z,92.08
2023-01-27T01:52:16.706Z,91.19
2023-01-27T01:58:36.600Z,91.09
2023-01-27T02:04:59.662Z,90.98
2023-01-27T02:11:19.624Z,90.81
2023-01-27T02:17:42.600Z,90.48
2023-01-27T02:24:02.710Z,90.72
2023-01-27T02:30:25.649Z,90.35
2023-01-27T02:36:45.632Z,89.93
2023-01-27T02:43:08.596Z,89.81
2023-01-27T02:49:28.637Z,89.9
2023-01-27T02:55:51.572Z,90.09
2023-01-27T03:02:11.742Z,89.71
2023-01-27T03:08:34.628Z,89.94
2023-01-27T03:14:54.588Z,89.97
2023-01-27T03:21:17.681Z,89.63
2023-01-27T03:27:37.642Z,89.8
2023-01-27T03:34:00.653Z,89.58
2023-01-27T03:40:20.581Z,89.32
2023-01-27T03:46:43.670Z,88.8
2023-01-27T03:53:03.652Z,89.11
2023-01-27T03:59:26.580Z,88.89
2023-01-27T04:05:46.656Z,89.08
2023-01-27T04:21:57.714Z,88.51
2023-01-27T04:28:25.658Z,88.52
2023-01-27T04:34:40.716Z,88.64
2023-01-27T04:41:00.586Z,88.58
2023-01-27T04:47:23.647Z,88.74
2023-01-27T04:53:43.571Z,88.58
2023-01-27T05:00:06.666Z,88.71
2023-01-27T05:06:26.623Z,88.21
2023-01-27T05:12:49.605Z,88.39
2023-01-27T05:19:09.630Z,88.73
2023-01-27T05:25:32.589Z,89.16
2023-01-27T05:31:52.594Z,89.07
2023-01-27T05:38:15.608Z,89.21
2023-01-27T05:44:35.633Z,89.26
2023-01-27T05:50:58.596Z,89.54
2023-01-27T05:57:18.604Z,89.63
2023-01-27T06:03:41.641Z,89.7
2023-01-27T06:10:01.674Z,89.82
2023-01-27T06:16:24.686Z,89.84
2023-01-27T06:22:44.586Z,89.98
2023-01-27T06:29:07.669Z,89.67
2023-01-27T06:35:27.628Z,89.56
2023-01-27T06:41:50.680Z,89.57
2023-01-27T06:48:10.649Z,89.46
2023-01-27T06:54:33.714Z,89.72
2023-01-27T07:00:53.692Z,89.27
2023-01-27T07:07:16.647Z,89.29
2023-01-27T07:13:36.675Z,89.19
2023-01-27T07:19:59.574Z,88.93
2023-01-27T07:26:25.040Z,88.76
2023-01-27T07:32:42.599Z,88.66
2023-01-27T07:39:02.636Z,88.74
2023-01-27T07:45:25.625Z,88.27
2023-01-27T07:51:45.592Z,88.3
2023-01-27T07:58:08.642Z,88.03
2023-01-27T08:04:28.803Z,87.73
2023-01-27T08:10:51.710Z,87.48
2023-01-27T08:17:11.613Z,87.54
2023-01-27T08:23:34.586Z,87.35
2023-01-27T08:29:54.609Z,86.87
2023-01-27T08:36:17.574Z,86.81
2023-01-27T08:42:37.587Z,86.76
2023-01-27T08:49:00.645Z,86.96
2023-01-27T08:55:20.597Z,86.52
2023-01-27T09:01:43.673Z,85.96
2023-01-27T09:08:03.677Z,86.1
2023-01-27T09:14:26.600Z,84.42
2023-01-27T09:32:15.580Z,82.6
2023-01-27T09:38:38.570Z,82.76
2023-01-27T09:44:58.613Z,83.28
2023-01-27T09:51:21.651Z,82.28
2023-01-27T09:57:41.579Z,81.98
2023-01-27T10:04:04.644Z,81.11
2023-01-27T10:10:24.639Z,81.66
2023-01-27T10:16:47.648Z,82.02
2023-01-27T10:23:07.632Z,80.89
2023-01-27T10:29:30.643Z,80.83
2023-01-27T10:35:50.579Z,78.94
2023-01-27T10:42:13.578Z,78.89
2023-01-27T10:48:33.632Z,78.04
2023-01-27T10:54:56.599Z,76.74
2023-01-27T11:01:21.599Z,77.15
2023-01-27T11:07:39.634Z,76.86
2023-01-27T11:13:59.671Z,76.61
2023-01-27T11:20:22.569Z,76.95
2023-01-27T11:26:42.641Z,75.64
2023-01-27T11:33:05.587Z,76.13
2023-01-27T11:39:25.798Z,76.45
2023-01-27T11:45:50.753Z,76.2
2023-01-27T11:52:10.611Z,75.04
2023-01-27T11:58:33.680Z,73.88
2023-01-27T12:04:53.717Z,73.53
2023-01-27T12:11:16.600Z,73.32
2023-01-27T12:17:36.578Z,73.83
2023-01-27T12:23:59.742Z,73.42
2023-01-27T12:30:19.611Z,72.29
2023-01-27T12:36:42.579Z,72.69
2023-01-27T12:43:02.740Z,72.38
2023-01-27T12:49:25.609Z,71.21
2023-01-27T12:55:45.600Z,70.17
2023-01-27T13:02:08.718Z,69.82
2023-01-27T13:08:28.948Z,70.77
2023-01-27T13:14:51.664Z,70.54
2023-01-27T13:21:11.639Z,70.82
2023-01-27T13:27:34.590Z,72.14
2023-01-27T13:33:54.594Z,71.12
2023-01-27T13:40:17.682Z,72.21
2023-01-27T13:46:37.930Z,72.53
2023-01-27T13:53:00.590Z,72.26
2023-01-27T13:59:20.668Z,72.48
2023-01-27T14:05:43.687Z,73.29
2023-01-27T14:12:03.605Z,73.01
2023-01-27T14:18:26.622Z,72.95
2023-01-27T14:24:46.767Z,72.9
2023-01-27T14:41:15.515Z,73.62
2023-01-27T14:47:35.569Z,73.93
2023-01-27T14:53:58.566Z,73.71
2023-01-27T15:00:18.612Z,74.49
2023-01-27T15:06:41.750Z,74.04
2023-01-27T15:13:01.609Z,74.42
2023-01-27T15:19:24.608Z,75.09
2023-01-27T15:25:44.607Z,74.47
2023-01-27T15:32:07.707Z,74.52
2023-01-27T15:38:27.621Z,74.1
2023-01-27T15:44:50.626Z,73.22
2023-01-27T15:51:10.585Z,73.89
2023-01-27T15:57:33.646Z,74.71
2023-01-27T16:03:53.590Z,74.87
2023-01-27T16:10:16.614Z,74.99
2023-01-27T16:16:36.694Z,75.11
2023-01-27T16:22:59.609Z,75.38
2023-01-27T16:29:19.684Z,75.29
2023-01-27T16:35:42.777Z,75.67
2023-01-27T16:42:02.621Z,75.55
2023-01-27T16:48:25.634Z,75.66
2023-01-27T16:54:45.664Z,75.47
2023-01-27T17:01:09.101Z,75.57
2023-01-27T17:07:28.659Z,76.06
2023-01-27T17:13:53.870Z,76.27
2023-01-27T17:20:11.703Z,76.67
2023-01-27T17:26:34.565Z,76.65
2023-01-27T17:32:54.667Z,76.64
2023-01-27T17:39:17.621Z,76.79
2023-01-27T17:45:37.652Z,76.76
2023-01-27T17:52:00.663Z,77.19
2023-01-27T17:58:20.669Z,77.51
2023-01-27T18:04:43.642Z,77.97
2023-01-27T18:11:03.639Z,77.81
2023-01-27T18:17:26.601Z,78.13
2023-01-27T18:23:46.656Z,78.26
2023-01-27T18:30:09.608Z,78.78
2023-01-27T18:36:29.606Z,78.77
2023-01-27T18:42:52.592Z,78.86
2023-01-27T18:49:12.640Z,79
2023-01-27T18:55:35.590Z,79.15
2023-01-27T19:01:55.624Z,79.57
2023-01-27T19:08:18.679Z,79.79
2023-01-27T19:14:38.639Z,80.06
2023-01-27T19:21:01.625Z,80.17
2023-01-27T19:27:21.610Z,80.18
2023-01-27T19:43:49.579Z,80.35
2023-01-27T19:50:09.563Z,80.54
2023-01-27T19:56:32.687Z,80.41
2023-01-27T20:02:52.626Z,80.75
2023-01-27T20:09:15.871Z,80.28
2023-01-27T20:15:35.580Z,80.14
2023-01-27T20:21:58.648Z,80.3
2023-01-27T20:28:18.715Z,80.51
2023-01-27T20:34:41.566Z,80.38
2023-01-27T20:41:01.643Z,80.3
2023-01-27T20:47:24.579Z,80.47
2023-01-27T20:53:44.607Z,80.42
2023-01-27T21:00:07.699Z,80.47
2023-01-27T21:06:27.615Z,80.38
2023-01-27T21:12:50.599Z,80.25
2023-01-27T21:19:10.597Z,80.16
2023-01-27T21:25:33.641Z,79.9
2023-01-27T21:31:53.874Z,80.04
2023-01-27T21:38:16.815Z,80.29
2023-01-27T21:44:36.585Z,80.38
2023-01-27T21:50:59.580Z,80.53
2023-01-27T21:57:19.583Z,80.77
2023-01-27T22:03:42.690Z,80.75
2023-01-27T22:10:02.624Z,80.59
2023-01-27T22:16:25.868Z,80.43
2023-01-27T22:22:45.596Z,80.48
2023-01-27T22:29:08.595Z,80.65
2023-01-27T22:35:28.878Z,80.71
2023-01-27T22:41:51.619Z,80.32
2023-01-27T22:48:11.615Z,80.34
2023-01-27T22:54:34.638Z,80.12
2023-01-27T23:20:05.592Z,79.93
2023-01-27T23:26:25.577Z,79.64
2023-01-27T23:32:48.571Z,79.04
2023-01-27T23:39:08.596Z,79.36
2023-01-27T23:45:31.613Z,79.06
2023-01-27T23:51:51.593Z,79.02
2023-01-27T23:58:14.807Z,78.71
